.
WxDataArchive / Data Records for 2013-01-19
2013-01-18 January 2013 2013-01-20

Data Records for Saturday, 19 January 2013

Time	Temp	Chill	HIndex	Humid	Dewpt	 Wind 	HiWind	WindDir	Rain 	Barom 
-----	----	-----	------	-----	-----	------	------	-------	-----	----- 
00:00	37.3	34.2	37.3	54	22.2	4	9	248	0.00	30.054 
00:05	37.3	37.3	37.3	55	22.6	2	7	248	0.00	30.054 
00:10	37.3	37.3	37.3	55	22.6	3	11	248	0.00	30.054 
00:15	37.3	37.3	37.3	55	22.6	2	6	248	0.00	30.049 
00:20	37.3	34.2	37.3	55	22.6	4	10	248	0.00	30.049 
00:25	37.3	37.3	37.3	55	22.6	3	9	248	0.00	30.049 
00:30	37.3	37.3	37.3	55	22.6	3	12	248	0.00	30.049 
00:35	37.3	37.3	37.3	55	22.6	2	9	248	0.00	30.049 
00:40	37.3	37.3	37.3	55	22.6	3	10	248	0.00	30.049 
00:45	37.3	37.3	37.3	55	22.6	3	10	248	0.00	30.049 
00:50	37.3	37.3	37.3	55	22.6	3	9	270	0.00	30.049 
00:55	37.3	37.3	37.3	55	22.6	3	11	248	0.00	30.049 
01:00	37.3	37.3	37.3	55	22.6	3	12	248	0.00	30.051 
01:05	37.2	37.2	37.2	56	23.0	2	7	248	0.00	30.051 
01:10	37.2	37.2	37.2	56	23.0	3	7	248	0.00	30.051 
01:15	37.2	37.2	37.2	56	23.0	3	10	248	0.00	30.048 
01:20	37.2	37.2	37.2	56	23.0	3	7	248	0.00	30.048 
01:25	37.2	37.2	37.2	56	23.0	2	6	248	0.00	30.048 
01:30	37.2	37.2	37.2	56	23.0	2	10	248	0.00	30.043 
01:35	37.2	37.2	37.2	56	23.0	3	9	248	0.00	30.043 
01:40	37.2	37.2	37.2	56	23.0	3	11	248	0.00	30.043 
01:45	37.2	37.2	37.2	56	23.0	2	8	248	0.00	30.041 
01:50	37.2	37.2	37.2	56	23.0	3	10	248	0.00	30.041 
01:55	37.3	37.3	37.3	56	23.1	3	10	248	0.00	30.041 
02:00	37.3	37.3	37.3	56	23.1	3	12	248	0.00	30.040 
02:05	37.3	37.3	37.3	56	23.1	2	7	248	0.00	30.040 
02:10	37.3	37.3	37.3	56	23.1	3	10	270	0.00	30.040 
02:15	37.5	34.4	37.5	56	23.2	4	13	248	0.00	30.042 
02:20	37.5	37.5	37.5	56	23.2	3	10	248	0.00	30.042 
02:25	37.6	37.6	37.6	56	23.3	2	9	248	0.00	30.042 
02:30	37.6	37.6	37.6	56	23.3	3	11	248	0.00	30.039 
02:35	37.6	37.6	37.6	56	23.3	2	7	248	0.00	30.039 
02:40	37.5	37.5	37.5	56	23.2	3	7	248	0.00	30.039 
02:45	37.5	37.5	37.5	56	23.2	3	7	248	0.00	30.040 
02:50	37.3	37.3	37.3	56	23.1	2	7	248	0.00	30.040 
02:55	37.3	37.3	37.3	57	23.5	2	9	248	0.00	30.040 
03:00	37.2	37.2	37.2	57	23.4	2	9	248	0.00	30.036 
03:05	37.2	37.2	37.2	57	23.4	3	10	248	0.00	30.036 
03:10	37.2	37.2	37.2	57	23.4	3	11	248	0.00	30.036 
03:15	37.3	37.3	37.3	57	23.5	3	6	248	0.00	30.033 
03:20	37.3	37.3	37.3	57	23.5	3	10	248	0.00	30.033 
03:25	37.3	37.3	37.3	57	23.5	2	7	248	0.00	30.033 
03:30	37.2	37.2	37.2	57	23.4	2	10	248	0.00	30.032 
03:35	37.5	37.5	37.5	57	23.7	3	11	248	0.00	30.032 
03:40	37.5	37.5	37.5	57	23.7	2	9	248	0.00	30.032 
03:45	37.6	37.6	37.6	57	23.8	3	9	248	0.00	30.032 
03:50	37.6	37.6	37.6	57	23.8	3	10	248	0.00	30.032 
03:55	37.8	37.8	37.8	56	23.5	3	9	270	0.00	30.032 
04:00	37.8	37.8	37.8	56	23.5	2	8	248	0.00	30.029 
04:05	37.8	37.8	37.8	56	23.5	2	5	248	0.00	30.029 
04:10	37.9	34.9	37.9	56	23.6	4	15	248	0.00	30.029 
04:15	38.0	38.0	38.0	56	23.7	3	7	248	0.00	30.027 
04:20	38.0	38.0	38.0	56	23.7	3	6	248	0.00	30.027 
04:25	38.2	38.2	38.2	56	23.9	3	9	248	0.00	30.027 
04:30	38.2	38.2	38.2	56	23.9	3	7	248	0.00	30.019 
04:35	38.3	38.3	38.3	56	24.0	3	12	248	0.00	30.019 
04:40	38.3	38.3	38.3	56	24.0	2	6	248	0.00	30.019 
04:45	38.2	38.2	38.2	56	23.9	2	9	225	0.00	30.016 
04:50	38.2	38.2	38.2	56	23.9	3	9	248	0.00	30.016 
04:55	38.3	38.3	38.3	56	24.0	3	6	248	0.00	30.016 
05:00	38.2	38.2	38.2	56	23.9	2	7	248	0.00	30.016 
05:05	38.3	38.3	38.3	56	24.0	3	9	248	0.00	30.016 
05:10	38.3	38.3	38.3	56	24.0	3	9	248	0.00	30.016 
05:15	38.2	38.2	38.2	57	24.3	2	6	248	0.00	30.017 
05:20	38.2	38.2	38.2	57	24.3	3	7	248	0.00	30.017 
05:25	38.2	38.2	38.2	57	24.3	3	9	248	0.00	30.017 
05:30	38.2	38.2	38.2	57	24.3	2	8	248	0.00	30.017 
05:35	38.0	38.0	38.0	57	24.1	3	6	248	0.00	30.017 
05:40	38.0	38.0	38.0	58	24.6	3	11	248	0.00	30.017 
05:45	38.0	38.0	38.0	58	24.6	2	9	248	0.00	30.016 
05:50	37.9	37.9	37.9	58	24.5	3	7	248	0.00	30.016 
05:55	37.9	37.9	37.9	58	24.5	3	11	248	0.00	30.016 
06:00	37.9	37.9	37.9	58	24.5	2	5	248	0.00	30.015 
06:05	37.8	37.8	37.8	58	24.4	2	7	248	0.00	30.015 
06:10	37.8	37.8	37.8	59	24.8	3	7	248	0.00	30.015 
06:15	37.8	37.8	37.8	59	24.8	2	12	248	0.00	30.016 
06:20	37.8	37.8	37.8	59	24.8	2	5	248	0.00	30.016 
06:25	37.8	37.8	37.8	59	24.8	3	7	248	0.00	30.016 
06:30	37.6	37.6	37.6	59	24.6	2	7	248	0.00	30.017 
06:35	37.6	37.6	37.6	60	25.0	2	9	248	0.00	30.017 
06:40	37.6	37.6	37.6	60	25.0	2	5	248	0.00	30.017 
06:45	37.5	37.5	37.5	60	24.9	2	6	248	0.00	30.017 
06:50	37.5	37.5	37.5	60	24.9	1	5	248	0.00	30.017 
06:55	37.3	37.3	37.3	61	25.1	2	6	248	0.00	30.017 
07:00	37.3	37.3	37.3	61	25.1	2	9	248	0.00	30.018 
07:05	37.3	37.3	37.3	61	25.1	2	5	248	0.00	30.018 
07:10	37.2	37.2	37.2	61	25.0	1	4	270	0.00	30.018 
07:15	37.2	37.2	37.2	62	25.4	2	5	248	0.00	30.016 
07:20	37.2	37.2	37.2	62	25.4	2	6	248	0.00	30.016 
07:25	37.3	37.3	37.3	62	25.5	2	5	248	0.00	30.016 
07:30	37.3	37.3	37.3	62	25.5	3	9	248	0.00	30.013 
07:35	37.3	37.3	37.3	62	25.5	2	5	248	0.00	30.013 
07:40	37.3	37.3	37.3	62	25.5	2	10	225	0.00	30.013 
07:45	37.3	37.3	37.3	62	25.5	3	10	248	0.00	30.014 
07:50	37.3	37.3	37.3	62	25.5	2	9	248	0.00	30.014 
07:55	37.3	37.3	37.3	62	25.5	2	7	248	0.00	30.014 
08:00	37.2	37.2	37.2	62	25.4	2	7	248	0.00	30.016 
08:05	37.2	37.2	37.2	62	25.4	2	5	248	0.00	30.016 
08:10	37.2	37.2	37.2	62	25.4	2	7	248	0.00	30.016 
08:15	37.2	37.2	37.2	62	25.4	2	5	248	0.00	30.016 
08:20	37.2	37.2	37.2	63	25.8	2	5	248	0.00	30.016 
08:25	37.2	37.2	37.2	63	25.8	2	5	248	0.00	30.016 
08:30	37.2	37.2	37.2	63	25.8	1	6	248	0.00	30.013 
08:35	37.3	37.3	37.3	63	25.9	1	3	270	0.00	30.013 
08:40	37.5	37.5	37.5	62	25.7	2	6	248	0.00	30.013 
08:45	37.6	37.6	37.6	62	25.8	1	5	248	0.00	30.006 
08:50	37.8	37.8	37.8	62	26.0	2	7	248	0.00	30.006 
08:55	37.9	37.9	37.9	62	26.1	2	7	248	0.00	30.006 
09:00	38.0	38.0	38.0	62	26.2	2	7	248	0.00	30.007 
09:05	38.2	38.2	38.2	61	26.0	2	5	248	0.00	30.007 
09:10	38.3	38.3	38.3	61	26.0	3	10	248	0.00	30.007 
09:15	38.6	38.6	38.6	60	25.9	3	9	270	0.00	30.008 
09:20	38.8	38.8	38.8	60	26.1	2	5	248	0.00	30.008 
09:25	38.9	38.9	38.9	60	26.2	2	7	248	0.00	30.008 
09:30	39.2	39.2	39.2	59	26.1	2	6	248	0.00	30.007 
09:35	39.5	39.5	39.5	58	26.0	3	13	248	0.00	30.007 
09:40	39.8	39.8	39.8	58	26.2	3	11	248	0.00	30.007 
09:45	40.1	37.4	40.1	57	26.1	4	11	248	0.00	30.008 
09:50	40.2	40.2	40.2	57	26.2	3	12	248	0.00	30.008 
09:55	40.3	40.3	40.3	57	26.3	2	10	248	0.00	30.008 
10:00	40.5	40.5	40.5	57	26.5	3	7	248	0.00	30.008 
10:05	40.6	38.0	40.6	56	26.1	4	13	248	0.00	30.008 
10:10	40.9	40.9	40.9	56	26.4	2	8	248	0.00	30.008 
10:15	41.2	41.2	41.2	56	26.7	2	6	248	0.00	30.009 
10:20	41.3	41.3	41.3	56	26.8	2	12	248	0.00	30.009 
10:25	41.6	39.2	41.6	55	26.6	4	10	248	0.00	30.009 
10:30	41.8	41.8	41.8	55	26.8	3	9	248	0.00	30.000 
10:35	41.9	41.9	41.9	54	26.5	3	9	248	0.00	30.000 
10:40	42.2	42.2	42.2	54	26.8	3	10	248	0.00	30.000 
10:45	42.5	42.5	42.5	54	27.0	3	7	248	0.00	29.993 
10:50	42.6	42.6	42.6	54	27.1	3	11	248	0.00	29.993 
10:55	42.8	40.6	42.8	54	27.3	4	10	248	0.00	29.993 
11:00	42.9	42.9	42.9	54	27.4	2	7	248	0.00	29.988 
11:05	43.2	43.2	43.2	54	27.7	3	10	248	0.00	29.988 
11:10	43.5	43.5	43.5	53	27.5	3	11	248	0.00	29.988 
11:15	43.6	43.6	43.6	53	27.6	3	7	248	0.00	29.978 
11:20	43.8	41.7	43.8	52	27.3	4	12	248	0.00	29.978 
11:25	44.1	44.1	44.1	53	28.1	3	10	248	0.00	29.978 
11:30	44.2	44.2	44.2	52	27.7	3	10	248	0.00	29.972 
11:35	44.3	44.3	44.3	52	27.8	3	9	248	0.00	29.972 
11:40	44.6	44.6	44.6	52	28.1	3	10	248	0.00	29.972 
11:45	44.8	42.9	44.8	52	28.3	4	11	248	0.00	29.959 
11:50	44.9	44.9	44.9	52	28.4	3	9	248	0.00	29.959 
11:55	45.1	45.1	45.1	52	28.5	3	11	248	0.00	29.959 
12:00	45.2	43.3	45.2	51	28.2	4	14	248	0.00	29.945 
12:05	45.4	43.6	45.4	52	28.8	4	17	270	0.00	29.945 
12:10	45.7	43.9	45.7	52	29.1	4	9	248	0.00	29.945 
12:15	45.8	44.0	45.8	51	28.7	4	10	248	0.00	29.931 
12:20	45.8	43.3	45.8	51	28.7	5	15	248	0.00	29.931 
12:25	45.8	44.0	45.8	51	28.7	4	11	248	0.00	29.931 
12:30	46.0	44.2	46.0	51	28.9	4	13	248	0.00	29.927 
12:35	46.1	43.6	46.1	51	29.0	5	12	248	0.00	29.927 
12:40	46.2	44.5	46.2	51	29.1	4	11	248	0.00	29.927 
12:45	46.4	43.4	46.4	50	28.8	6	13	248	0.00	29.913 
12:50	46.4	44.7	46.4	50	28.8	4	10	248	0.00	29.913 
12:55	46.5	44.8	46.5	51	29.4	4	12	248	0.00	29.913 
13:00	46.8	45.2	46.8	50	29.2	4	12	270	0.00	29.894 
13:05	47.0	44.7	47.0	50	29.3	5	14	270	0.00	29.894 
13:10	47.1	45.5	47.1	50	29.4	4	10	248	0.00	29.894 
13:15	47.3	47.3	47.3	51	30.1	3	10	248	0.00	29.883 
13:20	47.6	45.4	47.6	50	29.9	5	14	248	0.00	29.883 
13:25	47.4	45.2	47.4	50	29.7	5	17	248	0.00	29.883 
13:30	47.6	46.1	47.6	50	29.9	4	13	270	0.00	29.875 
13:35	47.9	47.9	47.9	50	30.2	2	10	248	0.00	29.875 
13:40	47.7	44.9	47.7	49	29.5	6	13	248	0.00	29.875 
13:45	47.7	46.2	47.7	50	30.0	4	11	248	0.00	29.864 
13:50	47.7	44.9	47.7	49	29.5	6	14	248	0.00	29.864 
13:55	47.7	45.5	47.7	50	30.0	5	10	248	0.00	29.864 
14:00	47.9	46.4	47.9	50	30.2	4	14	248	0.00	29.859 
14:05	47.9	45.8	47.9	50	30.2	5	14	248	0.00	29.859 
14:10	48.0	48.0	48.0	50	30.3	3	11	248	0.00	29.859 
14:15	48.2	46.1	48.2	49	29.9	5	13	248	0.00	29.849 
14:20	48.2	46.8	48.2	49	29.9	4	10	248	0.00	29.849 
14:25	48.3	46.9	48.3	49	30.0	4	10	248	0.00	29.849 
14:30	48.2	45.5	48.2	49	29.9	6	14	248	0.00	29.848 
14:35	48.2	46.1	48.2	50	30.4	5	14	248	0.00	29.848 
14:40	48.3	46.2	48.3	50	30.5	5	14	248	0.00	29.848 
14:45	48.3	46.2	48.3	49	30.0	5	13	248	0.00	29.846 
14:50	48.5	47.1	48.5	50	30.7	4	10	248	0.00	29.846 
14:55	48.3	45.6	48.3	49	30.0	6	14	248	0.00	29.846 
15:00	48.3	46.2	48.3	50	30.5	5	14	248	0.00	29.836 
15:05	48.5	47.1	48.5	50	30.7	4	13	248	0.00	29.836 
15:10	48.5	46.5	48.5	50	30.7	5	12	248	0.00	29.836 
15:15	48.6	46.0	48.6	50	30.8	6	12	248	0.00	29.829 
15:20	48.5	47.1	48.5	50	30.7	4	12	248	0.00	29.829 
15:25	48.6	46.6	48.6	50	30.8	5	15	248	0.00	29.829 
15:30	48.6	46.0	48.6	50	30.8	6	17	248	0.00	29.828 
15:35	48.9	47.6	48.9	50	31.1	4	11	248	0.00	29.828 
15:40	48.9	45.9	48.9	49	30.6	7	16	248	0.00	29.828 
15:45	48.9	45.9	48.9	50	31.1	7	19	248	0.00	29.818 
15:50	48.9	47.6	48.9	50	31.1	4	12	248	0.00	29.818 
15:55	48.8	47.5	48.8	50	31.0	4	13	248	0.00	29.818 
16:00	48.6	46.6	48.6	51	31.3	5	11	248	0.00	29.811 
16:05	48.6	46.6	48.6	51	31.3	5	11	248	0.00	29.811 
16:10	48.8	47.5	48.8	51	31.5	4	13	248	0.00	29.811 
16:15	48.8	47.5	48.8	51	31.5	4	14	248	0.00	29.815 
16:20	48.5	46.5	48.5	51	31.2	5	12	248	0.00	29.815 
16:25	48.2	46.8	48.2	52	31.4	4	9	248	0.00	29.815 
16:30	48.0	48.0	48.0	53	31.7	3	8	248	0.00	29.803 
16:35	47.9	46.4	47.9	53	31.6	4	10	248	0.00	29.803 
16:40	47.9	45.8	47.9	53	31.6	5	13	248	0.00	29.803 
16:45	47.7	47.7	47.7	53	31.4	3	11	248	0.00	29.804 
16:50	47.7	46.2	47.7	53	31.4	4	11	248	0.00	29.804 
16:55	47.7	46.2	47.7	53	31.4	4	11	248	0.00	29.804 
17:00	47.6	47.6	47.6	54	31.8	3	7	248	0.00	29.816 
17:05	47.6	47.6	47.6	54	31.8	3	11	248	0.00	29.816 
17:10	47.6	47.6	47.6	54	31.8	3	10	248	0.00	29.816 
17:15	47.4	47.4	47.4	54	31.6	3	9	248	0.00	29.805 
17:20	47.6	46.1	47.6	54	31.8	4	12	248	0.00	29.805 
17:25	47.4	47.4	47.4	54	31.6	2	6	225	0.00	29.805 
17:30	47.4	47.4	47.4	54	31.6	2	8	248	0.00	29.807 
17:35	47.4	45.9	47.4	54	31.6	4	11	248	0.00	29.807 
17:40	47.4	47.4	47.4	55	32.1	2	5	248	0.00	29.807 
17:45	47.3	47.3	47.3	55	32.0	3	10	248	0.00	29.810 
17:50	47.3	47.3	47.3	55	32.0	3	10	248	0.00	29.810 
17:55	47.0	47.0	47.0	56	32.1	2	10	248	0.00	29.810 
18:00	46.8	46.8	46.8	56	31.9	3	8	248	0.00	29.803 
18:05	46.8	46.8	46.8	57	32.4	3	15	248	0.00	29.803 
18:10	46.5	46.5	46.5	57	32.1	3	8	248	0.00	29.803 
18:15	46.4	46.4	46.4	58	32.4	3	10	248	0.00	29.799 
18:20	46.2	46.2	46.2	58	32.2	2	6	248	0.00	29.799 
18:25	46.0	46.0	46.0	59	32.5	2	9	248	0.00	29.799 
18:30	46.0	46.0	46.0	59	32.5	2	8	248	0.00	29.801 
18:35	45.8	45.8	45.8	59	32.3	3	7	248	0.00	29.801 
18:40	45.7	45.7	45.7	60	32.6	2	7	248	0.00	29.801 
18:45	45.7	45.7	45.7	60	32.6	2	7	248	0.00	29.800 
18:50	45.5	45.5	45.5	61	32.8	2	6	248	0.00	29.800 
18:55	45.4	45.4	45.4	61	32.7	1	5	248	0.00	29.800 
19:00	45.2	45.2	45.2	61	32.6	2	5	248	0.00	29.800 
19:05	45.1	45.1	45.1	62	32.9	2	7	248	0.00	29.800 
19:10	44.9	44.9	44.9	62	32.7	2	6	248	0.00	29.800 
19:15	44.8	44.8	44.8	62	32.6	2	10	248	0.00	29.801 
19:20	44.8	44.8	44.8	62	32.6	2	9	248	0.00	29.801 
19:25	44.6	44.6	44.6	63	32.8	2	5	225	0.00	29.801 
19:30	44.6	44.6	44.6	63	32.8	2	7	248	0.00	29.800 
19:35	44.5	44.5	44.5	63	32.7	2	5	248	0.00	29.800 
19:40	44.3	44.3	44.3	63	32.5	2	7	248	0.00	29.800 
19:45	44.2	44.2	44.2	64	32.8	2	6	248	0.00	29.798 
19:50	44.2	44.2	44.2	64	32.8	2	7	248	0.00	29.798 
19:55	44.2	44.2	44.2	64	32.8	2	7	248	0.00	29.798 
20:00	44.2	44.2	44.2	64	32.8	2	10	248	0.00	29.795 
20:05	44.2	44.2	44.2	64	32.8	2	5	248	0.00	29.795 
20:10	44.3	42.3	44.3	64	32.9	4	10	248	0.00	29.795 
20:15	44.5	44.5	44.5	64	33.1	3	11	248	0.00	29.786 
20:20	44.5	44.5	44.5	64	33.1	3	10	248	0.00	29.786 
20:25	44.5	44.5	44.5	64	33.1	3	9	248	0.00	29.786 
20:30	44.6	44.6	44.6	64	33.2	3	7	248	0.00	29.783 
20:35	44.6	44.6	44.6	64	33.2	3	10	248	0.00	29.783 
20:40	44.5	44.5	44.5	64	33.1	3	12	248	0.00	29.783 
20:45	44.5	44.5	44.5	64	33.1	3	9	248	0.00	29.780 
20:50	44.5	44.5	44.5	64	33.1	3	9	248	0.00	29.780 
20:55	44.5	44.5	44.5	64	33.1	3	10	248	0.00	29.780 
21:00	44.5	44.5	44.5	64	33.1	3	7	248	0.00	29.773 
21:05	44.3	44.3	44.3	64	32.9	3	7	248	0.00	29.773 
21:10	44.3	44.3	44.3	65	33.3	3	11	248	0.00	29.773 
21:15	44.3	44.3	44.3	65	33.3	2	7	248	0.00	29.768 
21:20	44.1	44.1	44.1	65	33.1	2	9	248	0.00	29.768 
21:25	44.1	42.1	44.1	65	33.1	4	12	248	0.00	29.768 
21:30	44.1	44.1	44.1	65	33.1	3	6	248	0.00	29.766 
21:35	44.1	44.1	44.1	65	33.1	3	6	248	0.00	29.766 
21:40	44.1	42.1	44.1	66	33.5	4	11	248	0.00	29.766 
21:45	44.1	44.1	44.1	66	33.5	3	10	248	0.00	29.767 
21:50	44.1	42.1	44.1	66	33.5	4	13	248	0.00	29.767 
21:55	44.1	42.1	44.1	66	33.5	4	11	248	0.00	29.767 
22:00	44.1	42.1	44.1	66	33.5	4	12	248	0.00	29.765 
22:05	44.1	44.1	44.1	66	33.5	3	10	248	0.00	29.765 
22:10	44.1	42.1	44.1	67	33.9	4	13	248	0.00	29.765 
22:15	44.1	42.1	44.1	67	33.9	4	12	248	0.00	29.763 
22:20	44.3	42.3	44.3	66	33.7	4	12	248	0.00	29.763 
22:25	44.3	42.3	44.3	66	33.7	4	10	248	0.00	29.763 
22:30	44.3	42.3	44.3	66	33.7	4	12	248	0.00	29.756 
22:35	44.3	42.3	44.3	66	33.7	4	9	248	0.00	29.756 
22:40	44.3	41.5	44.3	66	33.7	5	13	248	0.00	29.756 
22:45	44.3	42.3	44.3	66	33.7	4	9	248	0.00	29.757 
22:50	44.3	41.5	44.3	65	33.3	5	14	248	0.00	29.757 
22:55	44.3	42.3	44.3	65	33.3	4	10	248	0.00	29.757 
23:00	44.3	40.9	44.3	65	33.3	6	14	248	0.00	29.751 
23:05	44.5	41.8	44.5	65	33.5	5	13	248	0.00	29.751 
23:10	44.6	41.9	44.6	64	33.2	5	15	248	0.00	29.751 
23:15	44.5	42.5	44.5	64	33.1	4	12	248	0.00	29.749 
23:20	44.5	41.1	44.5	64	33.1	6	16	248	0.00	29.749 
23:25	44.3	42.3	44.3	65	33.3	4	10	248	0.00	29.749 
23:30	44.2	42.2	44.2	65	33.2	4	11	248	0.00	29.750 
23:35	44.2	40.8	44.2	64	32.8	6	17	248	0.00	29.750 
23:40	44.1	41.3	44.1	65	33.1	5	11	248	0.00	29.750 
23:45	44.1	40.6	44.1	65	33.1	6	11	248	0.00	29.748 
23:50	43.9	41.1	43.9	65	32.9	5	10	248	0.00	29.748 
23:55	43.8	40.9	43.8	65	32.8	5	14	248	0.00	29.748 

CoCoRaHS
IN-AL-39
A2 Web Hosting
Creative Commons License
GoDaddy
search engine by freefind advanced

loaded 2018-11-13 21:20:26 • last modified 2010-11-18 10:43:29
Privacy PolicyDisclaimer
• wx.awcolley.com is powered by PmWiki v.2002016 •
• all content (unless otherwise noted) © 2018 A W Colley